Maersk Visby — 9V8827 — position and weather

sailwx.info

Track history (hours):
 
Tides and Currents Weather Stations Pressure Air Temp Water Temp Dewpoint Dewpoint Depression Visibility Wind Speed Wind Dir Waves Ship Positions

Maersk Visby

Last reported at 2017-Nov-18 16:25 UTC. Time now 2017-Nov-20 05:54 UTC.
Position S 33°53' E 018°18'.

Length 180 m; draft 8.8 m.

Type: Ship (hazmat cat A). MMSI: 564979000.

Date/timePositionNaut miles runAvg speedWind from/ knotsBaromVisibWave heightAir tempDewpointWater temp
2017-Nov-18 16:25S 33°53' E 018°18'4 8.7
2017-Nov-18 16:00S 33°51' E 018°22'4 8.2
2017-Nov-18 15:30S 33°53' E 018°26'2 3.1
2017-Nov-18 15:00S 33°55' E 018°26'0 0.0
2017-Nov-18 14:28S 33°55' E 018°26'0 0.0
2017-Nov-18 13:58S 33°55' E 018°26'0 0.0
2017-Nov-18 13:25S 33°55' E 018°26'0 0.0
2017-Nov-18 12:58S 33°55' E 018°26'0 0.0
2017-Nov-18 12:28S 33°55' E 018°26'0 0.0
2017-Nov-18 11:58S 33°55' E 018°26'0 0.0
2017-Nov-18 11:25S 33°55' E 018°26'0 0.0
2017-Nov-18 10:58S 33°55' E 018°26'0 0.0
2017-Nov-18 10:28S 33°55' E 018°26'0 0.0
2017-Nov-18 09:58S 33°55' E 018°26'0 0.0
2017-Nov-18 09:22S 33°55' E 018°26'0 0.0
2017-Nov-18 08:58S 33°55' E 018°26'0 0.0
2017-Nov-18 08:28S 33°55' E 018°26'0 0.0
2017-Nov-18 07:58S 33°55' E 018°26'0 0.0
2017-Nov-18 07:28S 33°55' E 018°26'0 0.0
2017-Nov-18 06:58S 33°55' E 018°26'0 0.0
2017-Nov-18 06:25S 33°55' E 018°26'0 0.0
2017-Nov-18 05:58S 33°55' E 018°26'0 0.0
2017-Nov-18 05:28S 33°55' E 018°26'0 0.0
2017-Nov-18 04:58S 33°55' E 018°26'0 0.0
2017-Nov-18 04:28S 33°55' E 018°26'0 0.0
2017-Nov-18 03:58S 33°55' E 018°26'0 0.0
2017-Nov-18 03:28S 33°55' E 018°26'0 0.0
2017-Nov-18 02:58S 33°55' E 018°26'0 0.0
2017-Nov-18 02:28S 33°55' E 018°26'0 0.0
2017-Nov-18 01:58S 33°55' E 018°26'0 0.0
2017-Nov-18 01:28S 33°55' E 018°26'0 0.0
2017-Nov-18 00:58S 33°55' E 018°26'0 0.0
2017-Nov-18 00:28S 33°55' E 018°26'0 0.0
2017-Nov-17 23:58S 33°55' E 018°26'0 0.0
2017-Nov-17 23:28S 33°55' E 018°26'0 0.0
2017-Nov-17 22:52S 33°55' E 018°26'0 0.0
2017-Nov-17 22:28S 33°55' E 018°26'0 0.0
2017-Nov-17 21:58S 33°55' E 018°26'0 0.0
2017-Nov-17 21:28S 33°55' E 018°26'0 0.0
2017-Nov-17 20:58S 33°55' E 018°26'0 0.0
2017-Nov-17 20:28S 33°55' E 018°26'0 0.0
2017-Nov-17 19:58S 33°55' E 018°26'0 0.0
2017-Nov-17 19:28S 33°55' E 018°26'0 0.0
2017-Nov-17 18:52S 33°55' E 018°26'0 0.0
2017-Nov-17 18:28S 33°55' E 018°26'0 0.0
2017-Nov-17 17:58S 33°55' E 018°26'0 0.0
2017-Nov-17 17:28S 33°55' E 018°26'0 0.0
2017-Nov-17 16:58S 33°55' E 018°26'0 0.0
2017-Nov-17 16:28S 33°55' E 018°26'0 0.0
2017-Nov-17 15:58S 33°55' E 018°26'0 0.0
2017-Nov-17 15:28S 33°55' E 018°26'0 0.0
2017-Nov-17 15:01S 33°55' E 018°26'1 2.1
2017-Nov-17 14:30S 33°54' E 018°26'2 3.4
2017-Nov-17 14:00S 33°52' E 018°25'2 1.9
2017-Nov-17 13:10S 33°51' E 018°25'0 0.0
2017-Nov-17 12:58S 33°51' E 018°25'0 0.0
2017-Nov-17 12:22S 33°51' E 018°25'0 0.0
2017-Nov-17 11:58S 33°51' E 018°25'0 0.0
2017-Nov-17 11:19S 33°51' E 018°25'0 0.0
2017-Nov-17 10:25S 33°51' E 018°25'0 0.0
2017-Nov-17 09:46S 33°51' E 018°25'0 0.0
2017-Nov-17 09:01S 33°51' E 018°25'0 0.2
2017-Nov-17 08:58S 33°51' E 018°25'0 0.0
2017-Nov-17 08:07S 33°51' E 018°25'0 0.1
2017-Nov-17 07:58S 33°51' E 018°25'0 0.0
2017-Nov-17 07:16S 33°51' E 018°25'0 0.0
2017-Nov-17 06:58S 33°51' E 018°25'0 0.0
2017-Nov-17 06:16S 33°51' E 018°25'0 0.1
2017-Nov-17 05:59S 33°51' E 018°25'0 0.3
2017-Nov-17 05:30S 33°51' E 018°25'3 6.1
2017-Nov-17 05:00S 33°53' E 018°22'3 5.7
2017-Nov-17 04:29S 33°53' E 018°19'2 4.5
2017-Nov-17 04:00S 33°53' E 018°16'0 0.6
2017-Nov-17 03:30S 33°53' E 018°16'0 0.1
2017-Nov-17 03:00S 33°53' E 018°16'2 4.2
2017-Nov-17 02:30S 33°53' E 018°19'510.9
2017-Nov-17 02:00S 33°58' E 018°16'  
Track history (hours):
 
Tides and Currents Weather Stations Pressure Air Temp Water Temp Dewpoint Dewpoint Depression Visibility Wind Speed Wind Dir Waves Ship Positions

Maersk Visby

Last reported at 2017-Nov-18 16:25 UTC. Time now 2017-Nov-20 05:54 UTC.
Position S 33°53' E 018°18'.

Length 180 m; draft 8.8 m.

Type: Ship (hazmat cat A). MMSI: 564979000.

Date/timePositionNaut miles runAvg speedWind from/ knotsBaromVisibWave heightAir tempDewpointWater temp
2017-Nov-18 16:25S 33°53' E 018°18'4 8.7
2017-Nov-18 16:00S 33°51' E 018°22'4 8.2
2017-Nov-18 15:30S 33°53' E 018°26'2 3.1
2017-Nov-18 15:00S 33°55' E 018°26'0 0.0
2017-Nov-18 14:28S 33°55' E 018°26'0 0.0
2017-Nov-18 13:58S 33°55' E 018°26'0 0.0
2017-Nov-18 13:25S 33°55' E 018°26'0 0.0
2017-Nov-18 12:58S 33°55' E 018°26'0 0.0
2017-Nov-18 12:28S 33°55' E 018°26'0 0.0
2017-Nov-18 11:58S 33°55' E 018°26'0 0.0
2017-Nov-18 11:25S 33°55' E 018°26'0 0.0
2017-Nov-18 10:58S 33°55' E 018°26'0 0.0
2017-Nov-18 10:28S 33°55' E 018°26'0 0.0
2017-Nov-18 09:58S 33°55' E 018°26'0 0.0
2017-Nov-18 09:22S 33°55' E 018°26'0 0.0
2017-Nov-18 08:58S 33°55' E 018°26'0 0.0
2017-Nov-18 08:28S 33°55' E 018°26'0 0.0
2017-Nov-18 07:58S 33°55' E 018°26'0 0.0
2017-Nov-18 07:28S 33°55' E 018°26'0 0.0
2017-Nov-18 06:58S 33°55' E 018°26'0 0.0
2017-Nov-18 06:25S 33°55' E 018°26'0 0.0
2017-Nov-18 05:58S 33°55' E 018°26'0 0.0
2017-Nov-18 05:28S 33°55' E 018°26'0 0.0
2017-Nov-18 04:58S 33°55' E 018°26'0 0.0
2017-Nov-18 04:28S 33°55' E 018°26'0 0.0
2017-Nov-18 03:58S 33°55' E 018°26'0 0.0
2017-Nov-18 03:28S 33°55' E 018°26'0 0.0
2017-Nov-18 02:58S 33°55' E 018°26'0 0.0
2017-Nov-18 02:28S 33°55' E 018°26'0 0.0
2017-Nov-18 01:58S 33°55' E 018°26'0 0.0
2017-Nov-18 01:28S 33°55' E 018°26'0 0.0
2017-Nov-18 00:58S 33°55' E 018°26'0 0.0
2017-Nov-18 00:28S 33°55' E 018°26'0 0.0
2017-Nov-17 23:58S 33°55' E 018°26'0 0.0
2017-Nov-17 23:28S 33°55' E 018°26'0 0.0
2017-Nov-17 22:52S 33°55' E 018°26'0 0.0
2017-Nov-17 22:28S 33°55' E 018°26'0 0.0
2017-Nov-17 21:58S 33°55' E 018°26'0 0.0
2017-Nov-17 21:28S 33°55' E 018°26'0 0.0
2017-Nov-17 20:58S 33°55' E 018°26'0 0.0
2017-Nov-17 20:28S 33°55' E 018°26'0 0.0
2017-Nov-17 19:58S 33°55' E 018°26'0 0.0
2017-Nov-17 19:28S 33°55' E 018°26'0 0.0
2017-Nov-17 18:52S 33°55' E 018°26'0 0.0
2017-Nov-17 18:28S 33°55' E 018°26'0 0.0
2017-Nov-17 17:58S 33°55' E 018°26'0 0.0
2017-Nov-17 17:28S 33°55' E 018°26'0 0.0
2017-Nov-17 16:58S 33°55' E 018°26'0 0.0
2017-Nov-17 16:28S 33°55' E 018°26'0 0.0
2017-Nov-17 15:58S 33°55' E 018°26'0 0.0
2017-Nov-17 15:28S 33°55' E 018°26'0 0.0
2017-Nov-17 15:01S 33°55' E 018°26'1 2.1
2017-Nov-17 14:30S 33°54' E 018°26'2 3.4
2017-Nov-17 14:00S 33°52' E 018°25'2 1.9
2017-Nov-17 13:10S 33°51' E 018°25'0 0.0
2017-Nov-17 12:58S 33°51' E 018°25'0 0.0
2017-Nov-17 12:22S 33°51' E 018°25'0 0.0
2017-Nov-17 11:58S 33°51' E 018°25'0 0.0
2017-Nov-17 11:19S 33°51' E 018°25'0 0.0
2017-Nov-17 10:25S 33°51' E 018°25'0 0.0
2017-Nov-17 09:46S 33°51' E 018°25'0 0.0
2017-Nov-17 09:01S 33°51' E 018°25'0 0.2
2017-Nov-17 08:58S 33°51' E 018°25'0 0.0
2017-Nov-17 08:07S 33°51' E 018°25'0 0.1
2017-Nov-17 07:58S 33°51' E 018°25'0 0.0
2017-Nov-17 07:16S 33°51' E 018°25'0 0.0
2017-Nov-17 06:58S 33°51' E 018°25'0 0.0
2017-Nov-17 06:16S 33°51' E 018°25'0 0.1
2017-Nov-17 05:59S 33°51' E 018°25'0 0.3
2017-Nov-17 05:30S 33°51' E 018°25'3 6.1
2017-Nov-17 05:00S 33°53' E 018°22'3 5.7
2017-Nov-17 04:29S 33°53' E 018°19'2 4.5
2017-Nov-17 04:00S 33°53' E 018°16'0 0.6
2017-Nov-17 03:30S 33°53' E 018°16'0 0.1
2017-Nov-17 03:00S 33°53' E 018°16'2 4.2
2017-Nov-17 02:30S 33°53' E 018°19'510.9
2017-Nov-17 02:00S 33°58' E 018°16'  

Dump ship's entire track history